PST,Max TemperatureF,Mean TemperatureF,Min TemperatureF,Max Dew PointF,MeanDew PointF,Min DewpointF,Max Humidity, Mean Humidity, Min Humidity, Max Sea Level PressureIn, Mean Sea Level PressureIn, Min Sea Level PressureIn, Max VisibilityMiles, Mean VisibilityMiles, Min VisibilityMiles, Max Wind SpeedMPH, Mean Wind SpeedMPH, Max Gust SpeedMPH,PrecipitationIn, CloudCover, Events, WindDirDegrees
2011-11-1,80,63,46,46,35,28,57,32,15,29.96,29.92,29.88,10,8,5,8,4,,0.00,0,,258
2011-11-2,75,60,46,27,13,9,37,15,8,30.19,30.11,30.06,10,10,10,13,5,16,0.00,0,,285
2011-11-3,78,60,42,50,29,18,77,34,11,30.04,29.95,29.87,10,10,10,14,5,,0.00,4,,245
2011-11-4,55,52,46,48,46,43,88,83,72,29.80,29.76,29.70,10,8,4,15,6,20,0.00,8,Rain,198
2011-11-5,66,52,37,46,37,30,100,61,26,30.03,29.99,29.94,10,10,5,6,3,,0.00,4,,264
2011-11-6,55,48,42,46,44,37,93,79,67,30.04,29.99,29.95,10,8,5,14,4,,0.00,7,Rain-Thunderstorm,87
2011-11-7,62,50,37,39,35,30,93,52,30,30.19,30.12,30.08,10,10,10,13,4,,0.00,0,,276
2011-11-8,64,50,37,36,30,27,87,39,24,30.27,30.22,30.17,10,10,10,7,1,,0.00,1,,245
2011-11-9,73,56,39,34,24,18,65,28,14,30.30,30.22,30.15,10,10,10,9,3,,0.00,0,,306
2011-11-10,69,55,41,36,27,18,61,31,16,30.22,30.11,30.06,10,10,10,10,3,,0.00,8,,286
2011-11-11,71,61,51,37,30,27,58,33,20,30.01,29.90,29.84,10,10,10,9,2,,0.00,6,,260
2011-11-12,60,54,48,46,45,43,87,69,59,29.88,29.84,29.80,10,10,5,9,1,,0.00,8,,254
2011-11-13,69,56,44,48,44,41,87,56,37,29.96,29.91,29.87,10,10,10,9,2,,0.00,4,,240
2011-11-14,66,56,46,52,45,43,88,61,43,30.00,29.95,29.91,10,10,7,7,2,,0.00,2,,258
2011-11-15,66,58,51,48,47,45,77,61,49,30.08,30.03,29.99,10,5,4,8,3,,0.00,1,,250
2011-11-16,73,58,42,46,45,39,87,59,36,30.14,30.11,30.07,10,7,3,7,1,,0.00,0,,257
2011-11-17,75,60,44,46,40,36,76,45,24,30.11,30.03,29.97,10,9,7,9,3,,0.00,2,,235
2011-11-18,55,50,46,48,47,45,100,84,72,29.99,29.96,29.92,7,3,0,0,0,,0.00,8,Fog,-1
2011-11-19,59,55,51,46,44,39,77,67,48,29.96,29.93,29.89,10,10,10,12,4,,0.00,7,,197
2011-11-20,57,52,46,50,44,36,94,75,44,30.00,29.96,29.92,10,7,2,13,5,23,0.00,7,Rain,142
2011-11-21,59,52,44,46,43,37,100,76,48,30.24,30.18,30.11,10,7,0,7,1,,0.00,4,Fog,223
2011-11-22,68,54,39,43,37,30,87,48,24,30.27,30.19,30.13,10,10,10,7,2,,0.00,1,,108
2011-11-23,68,54,41,43,37,34,81,47,28,30.08,30.00,29.94,10,10,10,9,3,,0.00,3,,242
2011-11-24,57,52,46,43,42,39,87,66,51,30.08,30.03,30.00,10,9,7,6,0,,0.00,6,,260
2011-11-25,66,54,41,46,43,39,93,66,45,30.22,30.17,30.13,10,10,7,7,1,,0.00,0,,232
2011-11-26,78,60,42,37,29,21,66,28,14,30.32,30.28,30.23,10,10,10,13,2,,0.00,0,,68
2011-11-27,78,61,44,36,28,21,57,27,14,30.34,30.28,30.24,10,10,7,9,4,,0.00,1,,101
2011-11-28,80,63,46,39,32,25,58,33,14,30.19,30.12,30.08,10,10,7,10,6,,0.00,7,,50
2011-11-29,78,64,50,43,35,25,58,36,14,30.12,30.07,30.03,10,10,10,7,3,,0.00,5,,46
2011-11-30,73,57,41,46,36,28,82,46,20,30.02,29.88,29.77,10,10,7,9,2,,0.00,3,,247